Time;durP1;ratioP1;P1;durP2;ratioP2;P2;SDS_P1;SDS_P2;PMS_P1;PMS_P2;Temp;Humidity;BMP_temperature;BMP_pressure;BME280_temperature;BME280_humidity;BME280_pressure;Samples;Min_cycle;Max_cycle;Signal;HPM_P1;HPM_P2
2024/02/05 00:01:24;;;;;;;;;2.00;2.00;;;;;12.16;100.00;102662.44;5036712;28;45340;-79
2024/02/05 00:03:49;;;;;;;;;0.00;0.00;;;;;12.11;100.00;102652.91;5037290;28;68804;-79
2024/02/05 00:06:15;;;;;;;;;0.00;0.00;;;;;12.14;100.00;102658.13;5037099;28;61681;-79
2024/02/05 00:08:40;;;;;;;;;0.00;0.00;;;;;12.17;100.00;102658.13;5035956;28;66592;-79
2024/02/05 00:11:06;;;;;;;;;0.00;0.00;;;;;12.16;100.00;102661.59;5036943;28;46060;-79
2024/02/05 00:13:32;;;;;;;;;0.00;0.00;;;;;12.17;100.00;102663.34;5036961;28;73170;-79
2024/02/05 00:15:57;;;;;;;;;0.00;0.00;;;;;12.17;100.00;102658.13;5036851;28;45460;-79
2024/02/05 00:18:24;;;;;;;;;0.00;0.00;;;;;12.17;100.00;102660.72;5036965;28;45346;-79
2024/02/05 00:20:50;;;;;;;;;0.00;0.00;;;;;12.16;100.00;102658.97;5037553;28;47466;-79
2024/02/05 00:23:15;;;;;;;;;0.00;0.00;;;;;12.16;100.00;102665.06;5036345;28;45346;-79
2024/02/05 00:25:40;;;;;;;;;0.00;0.00;;;;;12.21;100.00;102659.84;5037917;28;45371;-79
2024/02/05 00:28:06;;;;;;;;;0.00;0.00;;;;;12.22;100.00;102656.34;5037106;28;64875;-79
2024/02/05 00:30:31;;;;;;;;;0.00;0.00;;;;;12.23;100.00;102659.81;5035524;28;75388;-79
2024/02/05 00:32:57;;;;;;;;;0.00;0.00;;;;;12.23;100.00;102662.44;5035446;28;73110;-79
2024/02/05 00:35:22;;;;;;;;;0.00;0.00;;;;;12.20;100.00;102655.47;5036027;28;45527;-79
2024/02/05 00:37:47;;;;;;;;;0.00;0.00;;;;;12.19;100.00;102656.38;5036834;28;71619;-79
2024/02/05 00:40:13;;;;;;;;;0.00;0.00;;;;;12.22;100.00;102658.97;5036607;28;71293;-79
2024/02/05 00:42:39;;;;;;;;;0.00;0.00;;;;;12.22;100.00;102658.06;5037378;28;46570;-79
2024/02/05 00:45:05;;;;;;;;;0.00;0.00;;;;;12.19;100.00;102653.75;5036536;28;45360;-79
2024/02/05 00:47:30;;;;;;;;;0.00;0.00;;;;;12.23;100.00;102658.06;5037549;28;45289;-79
2024/02/05 00:49:56;;;;;;;;;0.00;0.00;;;;;12.18;100.00;102655.50;5047215;28;75178;-79
2024/02/05 00:52:21;;;;;;;;;0.00;0.00;;;;;12.23;100.00;102652.00;5037355;28;45361;-78
2024/02/05 00:54:47;;;;;;;;;0.00;0.00;;;;;12.25;100.00;102663.28;5036375;28;68110;-79
2024/02/05 00:57:12;;;;;;;;;0.00;0.00;;;;;12.25;100.00;102652.84;5036530;28;66132;-79
2024/02/05 00:59:37;;;;;;;;;0.00;0.00;;;;;12.25;100.00;102650.25;5036128;28;73541;-79
2024/02/05 01:02:03;;;;;;;;;0.00;0.00;;;;;12.24;100.00;102646.78;5035829;28;45523;-79
2024/02/05 01:04:30;;;;;;;;;0.00;0.00;;;;;12.25;100.00;102656.31;5036233;28;64326;-79
2024/02/05 01:06:56;;;;;;;;;0.00;0.00;;;;;12.20;100.00;102642.41;5036045;28;45495;-79
2024/02/05 01:09:21;;;;;;;;;0.00;0.00;;;;;12.17;100.00;102651.16;5037317;28;48901;-79
2024/02/05 01:11:46;;;;;;;;;5.00;3.50;;;;;12.19;100.00;102649.38;5036757;28;45296;-79
2024/02/05 01:14:12;;;;;;;;;0.00;0.00;;;;;12.18;100.00;102641.56;5037119;28;45634;-80
2024/02/05 01:16:37;;;;;;;;;0.00;0.00;;;;;12.23;100.00;102649.38;5035266;28;45359;-79
2024/02/05 01:19:02;;;;;;;;;0.00;0.00;;;;;12.24;100.00;102644.16;5036498;28;46109;-79
2024/02/05 01:21:28;;;;;;;;;0.00;0.00;;;;;12.20;100.00;102640.69;5034962;28;71286;-79
2024/02/05 01:23:53;;;;;;;;;0.00;0.00;;;;;12.18;100.00;102641.56;5036463;28;46953;-79
2024/02/05 01:26:20;;;;;;;;;0.00;0.00;;;;;12.17;100.00;102637.22;5036910;28;45387;-79
2024/02/05 01:28:46;;;;;;;;;0.00;0.00;;;;;12.16;100.00;102636.34;5036836;28;46091;-79
2024/02/05 01:31:11;;;;;;;;;0.00;0.00;;;;;12.21;100.00;102641.56;5035543;28;45343;-78
2024/02/05 01:33:36;;;;;;;;;0.00;0.00;;;;;12.16;100.00;102625.91;5036019;28;53043;-79
2024/02/05 01:36:02;;;;;;;;;0.00;0.00;;;;;12.19;100.00;102638.09;5035172;28;47161;-79
2024/02/05 01:38:27;;;;;;;;;0.00;0.00;;;;;12.16;100.00;102633.72;5036097;28;59437;-79
2024/02/05 01:40:53;;;;;;;;;0.00;0.00;;;;;12.16;100.00;102622.44;5034422;28;73105;-79
2024/02/05 01:43:19;;;;;;;;;0.00;0.00;;;;;12.18;100.00;102625.91;5035498;28;45273;-79
2024/02/05 01:45:44;;;;;;;;;0.00;0.00;;;;;12.21;100.00;102633.72;5036399;28;48040;-80
2024/02/05 01:48:10;;;;;;;;;1.00;1.00;;;;;12.18;100.00;102621.56;5036040;28;46291;-79
2024/02/05 01:50:38;;;;;;;;;0.00;0.00;;;;;12.20;100.00;102617.19;5045360;28;74298;-79
2024/02/05 01:53:04;;;;;;;;;0.00;0.00;;;;;12.19;100.00;102622.44;5035427;28;45484;-79
2024/02/05 01:55:30;;;;;;;;;0.00;0.00;;;;;12.13;100.00;102622.47;5035168;28;45405;-80
2024/02/05 01:57:55;;;;;;;;;0.00;0.00;;;;;12.08;100.00;102621.63;5035100;28;46376;-79
2024/02/05 02:00:21;;;;;;;;;0.00;0.00;;;;;12.17;100.00;102625.03;5035026;28;48351;-79
2024/02/05 02:02:47;;;;;;;;;0.00;0.00;;;;;12.20;100.00;102631.97;5036174;28;45324;-79
2024/02/05 02:05:13;;;;;;;;;0.00;0.00;;;;;12.19;100.00;102622.44;5034241;28;61060;-79
2024/02/05 02:07:39;;;;;;;;;0.00;0.00;;;;;12.16;100.00;102618.06;5036155;28;47258;-79
2024/02/05 02:10:04;;;;;;;;;0.00;0.00;;;;;12.17;100.00;102611.97;5036353;28;45430;-79
2024/02/05 02:12:30;;;;;;;;;0.00;0.00;;;;;12.20;100.00;102616.31;5036237;28;45331;-79
2024/02/05 02:14:55;;;;;;;;;0.00;0.00;;;;;12.18;100.00;102613.72;5034579;28;53735;-79
2024/02/05 02:17:23;;;;;;;;;0.00;0.00;;;;;12.10;100.00;102620.72;5034620;28;71826;-79
2024/02/05 02:19:51;;;;;;;;;0.00;0.00;;;;;12.16;100.00;102618.06;5034953;28;45381;-79
2024/02/05 02:22:35;;;;;;;;;0.00;0.00;;;;;12.19;100.00;102618.06;5034769;28;45469;-79
2024/02/05 02:25:01;;;;;;;;;0.00;0.00;;;;;12.20;100.00;102622.41;5036120;28;45499;-79
2024/02/05 02:27:26;;;;;;;;;0.00;0.00;;;;;12.18;100.00;102618.06;5034710;28;45323;-79
2024/02/05 02:29:52;;;;;;;;;0.00;0.00;;;;;12.18;100.00;102613.72;5035054;28;73300;-79
2024/02/05 02:32:53;;;;;;;;;1.00;1.00;;;;;12.14;100.00;102616.34;5033423;28;68864;-80
2024/02/05 02:35:24;;;;;;;;;0.00;0.00;;;;;12.17;100.00;102611.13;5033694;28;70393;-80
2024/02/05 02:38:01;;;;;;;;;0.00;0.00;;;;;12.15;100.00;102608.53;5035715;28;46186;-79
2024/02/05 02:40:28;;;;;;;;;0.00;0.00;;;;;12.32;100.00;102600.56;5034619;28;45435;-79
2024/02/05 02:42:58;;;;;;;;;0.00;0.00;;;;;12.35;100.00;102610.13;5034567;28;45357;-79
2024/02/05 02:45:24;;;;;;;;;0.00;0.00;;;;;12.34;100.00;102613.63;5034630;28;45412;-79
2024/02/05 02:47:50;;;;;;;;;0.00;0.00;;;;;12.38;100.00;102612.72;5032993;28;73267;-79
2024/02/05 02:50:16;;;;;;;;;0.00;0.00;;;;;12.35;100.00;102608.41;5045637;28;45334;-79
2024/02/05 02:52:41;;;;;;;;;0.00;0.00;;;;;12.37;100.00;102608.41;5035732;28;45371;-79
2024/02/05 02:55:07;;;;;;;;;0.00;0.00;;;;;12.18;100.00;102605.00;5034371;28;45454;-80
2024/02/05 02:57:33;;;;;;;;;0.00;0.00;;;;;12.11;100.00;102601.59;5035511;28;46610;-79
2024/02/05 02:59:58;;;;;;;;;0.00;0.00;;;;;12.11;100.00;102605.91;5034251;28;71893;-79
2024/02/05 03:02:24;;;;;;;;;0.00;0.00;;;;;12.11;100.00;102604.19;5034547;28;69117;-79
2024/02/05 03:04:51;;;;;;;;;0.00;0.00;;;;;12.11;100.00;102604.19;5035533;28;45487;-79
2024/02/05 03:07:16;;;;;;;;;0.00;0.00;;;;;12.09;100.00;102595.50;5035447;28;46798;-79
2024/02/05 03:09:41;;;;;;;;;0.00;0.00;;;;;12.06;100.00;102610.31;5034371;28;45402;-79
2024/02/05 03:12:07;;;;;;;;;0.00;0.00;;;;;12.10;100.00;102614.63;5033350;28;67271;-79
2024/02/05 03:14:32;;;;;;;;;0.00;0.00;;;;;12.13;100.00;102606.81;5033198;28;58246;-79
2024/02/05 03:16:57;;;;;;;;;0.00;0.00;;;;;12.09;100.00;102611.16;5034422;28;70643;-79
2024/02/05 03:19:23;;;;;;;;;0.00;0.00;;;;;12.06;100.00;102600.72;5035223;28;45309;-79
2024/02/05 03:21:48;;;;;;;;;0.00;0.00;;;;;12.09;100.00;102599.84;5033010;28;68329;-79
2024/02/05 03:24:14;;;;;;;;;0.00;0.00;;;;;12.08;100.00;102601.59;5035182;28;45495;-79
2024/02/05 03:26:39;;;;;;;;;0.00;0.00;;;;;12.09;100.00;102595.50;5033220;28;64705;-79
2024/02/05 03:29:04;;;;;;;;;0.00;0.00;;;;;12.10;100.00;102596.38;5033854;28;73063;-79
2024/02/05 03:31:29;;;;;;;;;0.00;0.00;;;;;12.05;100.00;102587.69;5034663;28;58930;-79
2024/02/05 03:33:55;;;;;;;;;0.00;0.00;;;;;12.06;100.00;102595.50;5034162;28;69354;-79
2024/02/05 03:36:20;;;;;;;;;0.00;0.00;;;;;12.03;100.00;102597.28;5034103;28;74394;-79
2024/02/05 03:38:45;;;;;;;;;0.00;0.00;;;;;11.99;100.00;102599.03;5035034;28;72084;-79
2024/02/05 03:41:11;;;;;;;;;0.00;0.00;;;;;12.01;100.00;102600.75;5037890;28;61796;-79
2024/02/05 03:43:36;;;;;;;;;0.00;0.00;;;;;12.00;100.00;102601.63;5037176;28;71495;-79
2024/02/05 03:46:01;;;;;;;;;0.00;0.00;;;;;12.04;100.00;102599.88;5038367;28;45573;-79
2024/02/05 03:48:27;;;;;;;;;0.00;0.00;;;;;12.00;100.00;102598.16;5036253;28;72490;-79
2024/02/05 03:50:52;;;;;;;;;0.00;0.00;;;;;11.93;100.00;102602.53;5048747;28;70171;-79
2024/02/05 03:53:17;;;;;;;;;1.00;1.00;;;;;11.96;100.00;102605.16;5037440;28;64286;-79
2024/02/05 03:55:43;;;;;;;;;0.00;0.00;;;;;11.89;100.00;102607.75;5038242;28;45988;-79
2024/02/05 03:58:09;;;;;;;;;0.00;0.00;;;;;11.88;100.00;102601.66;5037036;28;73548;-79
2024/02/05 04:00:35;;;;;;;;;2.50;1.75;;;;;11.90;100.00;102601.69;5037341;28;68564;-79
2024/02/05 04:03:00;;;;;;;;;0.00;0.00;;;;;11.97;100.00;102604.25;5038300;28;45295;-79
2024/02/05 04:05:28;;;;;;;;;0.00;0.00;;;;;11.92;100.00;102595.59;5038146;28;45609;-79
2024/02/05 04:07:53;;;;;;;;;0.00;0.00;;;;;11.95;100.00;102598.19;5038216;28;45305;-79
2024/02/05 04:10:18;;;;;;;;;0.00;0.00;;;;;11.91;100.00;102598.22;5037286;28;45278;-79
2024/02/05 04:12:44;;;;;;;;;0.00;0.00;;;;;11.93;100.00;102591.25;5036595;28;45358;-79
2024/02/05 04:15:09;;;;;;;;;0.00;0.00;;;;;11.93;100.00;102589.50;5036920;28;74102;-79
2024/02/05 04:17:34;;;;;;;;;0.00;0.00;;;;;11.95;100.00;102592.09;5036805;28;45400;-79
2024/02/05 04:20:00;;;;;;;;;0.00;0.00;;;;;11.93;100.00;102592.09;5037141;28;67820;-79
2024/02/05 04:22:25;;;;;;;;;0.00;0.00;;;;;11.95;100.00;102592.97;5037076;28;63552;-79
2024/02/05 04:24:50;;;;;;;;;0.00;0.00;;;;;11.89;100.00;102582.53;5036663;28;75534;-79
2024/02/05 04:27:16;;;;;;;;;0.00;0.00;;;;;11.93;100.00;102586.88;5037473;28;45359;-79
2024/02/05 04:29:41;;;;;;;;;0.00;0.00;;;;;11.92;100.00;102582.56;5038147;28;45458;-79
2024/02/05 04:32:07;;;;;;;;;0.00;0.00;;;;;11.92;100.00;102590.38;5037870;28;45348;-79
2024/02/05 04:34:32;;;;;;;;;0.00;0.00;;;;;11.89;100.00;102592.09;5036771;28;74394;-79
2024/02/05 04:36:57;;;;;;;;;0.00;0.00;;;;;11.89;100.00;102589.50;5035309;28;72415;-79
2024/02/05 04:39:23;;;;;;;;;0.00;0.00;;;;;11.86;100.00;102590.34;5036655;28;68546;-79
2024/02/05 04:41:49;;;;;;;;;0.00;0.00;;;;;11.86;100.00;102590.34;5036171;28;45396;-79
2024/02/05 04:44:17;;;;;;;;;0.00;0.00;;;;;11.85;100.00;102588.63;5036247;28;45394;-79
2024/02/05 04:46:42;;;;;;;;;0.00;0.00;;;;;11.82;100.00;102599.09;5037558;28;45343;-79
2024/02/05 04:49:08;;;;;;;;;0.00;0.00;;;;;11.80;100.00;102599.09;5042483;28;45294;-79
2024/02/05 04:51:33;;;;;;;;;0.00;0.00;;;;;11.82;100.00;102609.53;5042875;28;45367;-80
2024/02/05 04:53:58;;;;;;;;;0.00;0.00;;;;;11.81;100.00;102606.06;5036944;28;56335;-79
2024/02/05 04:56:24;;;;;;;;;0.00;0.00;;;;;11.78;100.00;102610.41;5035650;28;45557;-79
2024/02/05 04:58:51;;;;;;;;;0.00;0.00;;;;;11.78;100.00;102603.44;5036504;28;67462;-79
2024/02/05 05:01:16;;;;;;;;;0.00;0.00;;;;;11.76;100.00;102592.16;5037677;28;45375;-79
2024/02/05 05:03:41;;;;;;;;;0.00;0.00;;;;;11.80;100.00;102601.69;5037090;28;46010;-79
2024/02/05 05:06:07;;;;;;;;;46.00;45.00;;;;;11.81;100.00;102600.84;5036314;28;70981;-79
2024/02/05 05:08:32;;;;;;;;;10.00;10.00;;;;;11.80;100.00;102595.63;5036307;28;67888;-79
2024/02/05 05:10:58;;;;;;;;;0.00;0.00;;;;;11.81;100.00;102595.63;5036899;28;45577;-79
2024/02/05 05:13:23;;;;;;;;;0.00;0.00;;;;;11.82;100.00;102596.47;5035182;28;58832;-79
2024/02/05 05:15:49;;;;;;;;;0.00;0.00;;;;;11.81;100.00;102590.41;5037109;28;45471;-79
2024/02/05 05:18:14;;;;;;;;;0.25;0.25;;;;;11.70;100.00;102593.91;5035634;28;48226;-78
2024/02/05 05:20:41;;;;;;;;;0.25;0.25;;;;;11.71;100.00;102588.69;5035941;28;45529;-79
2024/02/05 05:23:06;;;;;;;;;0.00;0.00;;;;;11.67;100.00;102586.97;5036537;28;48513;-78
2024/02/05 05:25:31;;;;;;;;;0.00;0.00;;;;;11.66;100.00;102589.56;5035607;28;74771;-79
2024/02/05 05:27:57;;;;;;;;;0.00;0.00;;;;;11.62;100.00;102583.50;5034816;28;67481;-79
2024/02/05 05:30:22;;;;;;;;;3.00;3.00;;;;;11.62;100.00;102588.72;5035874;28;69795;-78
2024/02/05 05:32:47;;;;;;;;;0.00;0.00;;;;;11.62;100.00;102581.75;5035887;28;68618;-79
2024/02/05 05:35:13;;;;;;;;;0.00;0.00;;;;;11.63;100.00;102586.09;5035678;28;73145;-79
2024/02/05 05:37:39;;;;;;;;;0.00;0.00;;;;;11.59;100.00;102571.34;5039862;28;69156;-79
2024/02/05 05:40:06;;;;;;;;;0.00;0.00;;;;;11.61;100.00;102577.44;5048643;28;45578;-78
2024/02/05 05:42:31;;;;;;;;;0.00;0.00;;;;;11.58;100.00;102577.44;5036443;28;46279;-78
2024/02/05 05:44:56;;;;;;;;;0.00;0.00;;;;;11.55;100.00;102569.63;5040751;28;73209;-78
2024/02/05 05:47:21;;;;;;;;;0.00;0.00;;;;;11.51;100.00;102572.25;5036160;28;56937;-79
2024/02/05 05:49:47;;;;;;;;;0.00;0.00;;;;;11.55;100.00;102566.13;5044796;28;62374;-79
2024/02/05 05:52:12;;;;;;;;;0.00;0.00;;;;;11.55;100.00;102569.63;5052612;28;45402;-78
2024/02/05 05:54:38;;;;;;;;;0.00;0.00;;;;;11.53;100.00;102566.13;5050988;28;45452;-78
2024/02/05 05:57:05;;;;;;;;;0.00;0.00;;;;;11.51;100.00;102573.09;5043766;28;49931;-78
2024/02/05 05:59:30;;;;;;;;;0.00;0.00;;;;;11.49;100.00;102564.41;5036508;28;45540;-79
2024/02/05 06:01:55;;;;;;;;;0.00;0.00;;;;;11.49;100.00;102572.25;5035894;28;50650;-78
2024/02/05 06:04:21;;;;;;;;;0.00;0.00;;;;;11.49;100.00;102567.03;5034182;28;73013;-78
2024/02/05 06:06:46;;;;;;;;;0.00;0.00;;;;;11.45;100.00;102561.84;5037487;28;45569;-78
2024/02/05 06:09:17;;;;;;;;;0.00;0.00;;;;;11.38;100.00;102566.19;5033798;28;69189;-78
2024/02/05 06:11:43;;;;;;;;;0.00;0.00;;;;;11.37;100.00;102560.13;5034794;28;47066;-78
2024/02/05 06:14:08;;;;;;;;;1.00;1.00;;;;;11.35;100.00;102561.00;5035945;28;46520;-78
2024/02/05 06:16:33;;;;;;;;;0.00;0.00;;;;;11.36;100.00;102549.69;5037873;28;69327;-78
2024/02/05 06:18:58;;;;;;;;;0.00;0.00;;;;;11.36;100.00;102550.56;5041940;28;57113;-78
2024/02/05 06:21:24;;;;;;;;;0.00;0.00;;;;;11.37;100.00;102557.53;5037715;28;71219;-79
2024/02/05 06:23:49;;;;;;;;;0.00;0.00;;;;;11.37;100.00;102559.28;5053220;28;69780;-78
2024/02/05 06:26:14;;;;;;;;;0.00;0.00;;;;;11.36;100.00;102558.38;5042376;28;52085;-78
2024/02/05 06:28:41;;;;;;;;;0.00;0.00;;;;;11.40;100.00;102569.66;5055198;28;67783;-77
2024/02/05 06:31:07;;;;;;;;;0.00;0.00;;;;;11.34;100.00;102562.72;5056174;28;46455;-78
2024/02/05 06:33:33;;;;;;;;;1.00;1.00;;;;;11.30;100.00;102568.84;5054842;28;45423;-78
2024/02/05 06:35:58;;;;;;;;;0.00;0.00;;;;;11.34;100.00;102554.91;5056312;28;45307;-79
2024/02/05 06:38:24;;;;;;;;;0.00;0.00;;;;;11.28;100.00;102556.69;5054505;28;45306;-79
2024/02/05 06:40:50;;;;;;;;;0.00;0.00;;;;;11.31;100.00;102548.84;5054873;28;73575;-78
2024/02/05 06:43:16;;;;;;;;;0.00;0.00;;;;;11.30;100.00;102557.53;5054672;28;45329;-77
2024/02/05 06:45:41;;;;;;;;;0.00;0.00;;;;;11.29;100.00;102554.09;5056510;28;45339;-78
2024/02/05 06:48:07;;;;;;;;;0.00;0.00;;;;;11.24;100.00;102550.63;5055146;28;45457;-79
2024/02/05 06:50:32;;;;;;;;;0.00;0.00;;;;;11.21;100.00;102558.44;5055487;28;46250;-79
2024/02/05 06:52:57;;;;;;;;;0.00;0.00;;;;;11.22;100.00;102555.81;5055156;28;45441;-78
2024/02/05 06:55:23;;;;;;;;;0.00;0.00;;;;;11.23;100.00;102547.13;5055093;28;67562;-80
2024/02/05 06:57:48;;;;;;;;;0.00;0.00;;;;;11.27;100.00;102547.13;5055827;28;45386;-80
2024/02/05 07:00:14;;;;;;;;;0.00;0.00;;;;;11.28;100.00;102549.72;5055648;28;46140;-79
2024/02/05 07:02:40;;;;;;;;;12.00;12.00;;;;;11.30;100.00;102544.50;5055575;28;45399;-79
2024/02/05 07:05:06;;;;;;;;;0.00;0.00;;;;;11.29;100.00;102554.09;5055593;28;58361;-77
2024/02/05 07:07:31;;;;;;;;;0.00;0.00;;;;;11.28;100.00;102549.72;5055338;28;45637;-78
2024/02/05 07:09:56;;;;;;;;;0.00;0.00;;;;;11.29;100.00;102554.09;5055766;28;45348;-77
2024/02/05 07:12:22;;;;;;;;;0.00;0.00;;;;;11.27;100.00;102554.94;5055483;28;45344;-77
2024/02/05 07:14:47;;;;;;;;;0.00;0.00;;;;;11.24;100.00;102543.66;5056548;28;53387;-77
2024/02/05 07:17:15;;;;;;;;;0.00;0.00;;;;;11.23;100.00;102547.13;5059127;28;45345;-78
2024/02/05 07:19:41;;;;;;;;;0.00;0.00;;;;;11.15;100.00;102548.03;5059184;28;46476;-78
2024/02/05 07:22:12;;;;;;;;;0.00;0.00;;;;;11.15;100.00;102546.28;5058581;28;45378;-77
2024/02/05 07:24:38;;;;;;;;;0.00;0.00;;;;;11.15;100.00;102546.28;5058933;28;45325;-77
2024/02/05 07:27:03;;;;;;;;;0.00;0.00;;;;;11.13;100.00;102544.56;5056771;28;72753;-77
2024/02/05 07:29:29;;;;;;;;;0.00;0.00;;;;;11.18;100.00;102548.88;5058652;28;46362;-76
2024/02/05 07:31:54;;;;;;;;;0.00;0.00;;;;;11.17;100.00;102547.13;5057445;28;48709;-76
2024/02/05 07:34:20;;;;;;;;;0.50;0.50;;;;;11.15;100.00;102554.09;5059092;28;45358;-77
2024/02/05 07:36:45;;;;;;;;;1.00;1.00;;;;;11.13;100.00;102555.00;5058569;28;45245;-77
2024/02/05 07:39:12;;;;;;;;;0.00;0.00;;;;;11.12;100.00;102553.25;5057692;28;72749;-77
2024/02/05 07:41:37;;;;;;;;;0.00;0.00;;;;;11.11;100.00;102551.53;5058697;28;45413;-77
2024/02/05 07:44:03;;;;;;;;;0.00;0.00;;;;;11.09;100.00;102541.09;5057550;28;45509;-76
2024/02/05 07:46:28;;;;;;;;;0.00;0.00;;;;;11.07;100.00;102561.09;5058954;28;45381;-77
2024/02/05 07:48:54;;;;;;;;;0.00;0.00;;;;;11.07;100.00;102550.66;5058469;28;46604;-77
2024/02/05 07:51:19;;;;;;;;;0.00;0.00;;;;;10.99;100.00;102547.19;5055749;28;45477;-76
2024/02/05 07:53:44;;;;;;;;;0.00;0.00;;;;;11.01;100.00;102545.44;5037904;28;61303;-77
2024/02/05 07:56:10;;;;;;;;;0.00;0.00;;;;;11.03;100.00;102539.38;5037472;28;70198;-77
2024/02/05 07:58:38;;;;;;;;;0.00;0.00;;;;;11.36;100.00;102542.72;5038289;28;46954;-77
2024/02/05 08:01:04;;;;;;;;;0.00;0.00;;;;;11.43;100.00;102539.22;5037424;28;73989;-77
2024/02/05 08:03:30;;;;;;;;;0.00;0.00;;;;;11.36;100.00;102537.53;5036644;28;53639;-76
2024/02/05 08:05:56;;;;;;;;;2.00;2.00;;;;;11.33;100.00;102536.66;5037966;28;45302;-77
2024/02/05 08:08:21;;;;;;;;;0.00;0.00;;;;;11.46;100.00;102533.16;5038199;28;46246;-77
2024/02/05 08:10:47;;;;;;;;;0.00;0.00;;;;;11.34;100.00;102535.81;5036534;28;56895;-77
2024/02/05 08:13:12;;;;;;;;;0.00;0.00;;;;;11.38;100.00;102530.56;5037300;28;68166;-77
2024/02/05 08:15:37;;;;;;;;;4.00;4.00;;;;;11.45;100.00;102541.84;5036858;28;68443;-77
2024/02/05 08:18:02;;;;;;;;;0.00;0.00;;;;;11.48;100.00;102540.94;5037525;28;56523;-77
2024/02/05 08:20:28;;;;;;;;;0.00;0.00;;;;;11.48;100.00;102541.84;5037691;28;45309;-77
2024/02/05 08:22:53;;;;;;;;;0.00;0.00;;;;;11.39;100.00;102534.91;5036698;28;45500;-76
2024/02/05 08:25:18;;;;;;;;;0.00;0.00;;;;;11.34;100.00;102536.66;5035762;28;70398;-77
2024/02/05 08:27:44;;;;;;;;;0.00;0.00;;;;;11.36;100.00;102544.47;5036904;28;70657;-77
2024/02/05 08:30:10;;;;;;;;;0.00;0.00;;;;;11.40;100.00;102548.81;5037744;28;45362;-77
2024/02/05 08:32:35;;;;;;;;;0.00;0.00;;;;;11.39;100.00;102542.72;5037920;28;45301;-77
2024/02/05 08:35:00;;;;;;;;;0.00;0.00;;;;;11.35;100.00;102538.41;5037697;28;45511;-76
2024/02/05 08:37:26;;;;;;;;;0.00;0.00;;;;;11.40;100.00;102539.28;5037683;28;46170;-77
2024/02/05 08:39:51;;;;;;;;;0.00;0.00;;;;;11.43;100.00;102536.63;5037345;28;54192;-76
2024/02/05 08:42:18;;;;;;;;;0.00;0.00;;;;;11.42;100.00;102539.22;5037664;28;45447;-76
2024/02/05 08:44:45;;;;;;;;;0.00;0.00;;;;;11.43;100.00;102539.22;5037981;28;45317;-77
2024/02/05 08:47:13;;;;;;;;;9.00;9.00;;;;;11.47;100.00;102544.44;5037556;28;47009;-76
2024/02/05 08:49:39;;;;;;;;;0.00;0.00;;;;;11.35;100.00;102532.34;5046096;28;45430;-77
2024/02/05 08:52:05;;;;;;;;;0.00;0.00;;;;;11.29;100.00;102535.84;5056303;28;45396;-77
2024/02/05 08:54:31;;;;;;;;;0.00;0.00;;;;;11.29;100.00;102537.53;5056441;28;45488;-77
2024/02/05 08:56:57;;;;;;;;;0.00;0.00;;;;;11.29;100.00;102546.25;5056318;28;47219;-77
2024/02/05 08:59:22;;;;;;;;;0.00;0.00;;;;;11.31;100.00;102538.41;5055505;28;73153;-77
2024/02/05 09:01:48;;;;;;;;;0.00;0.00;;;;;11.27;100.00;102537.53;5057452;28;45220;-77
2024/02/05 09:04:14;;;;;;;;;4.50;4.50;;;;;11.26;100.00;102528.00;5057171;28;45336;-77
2024/02/05 09:06:39;;;;;;;;;0.00;0.00;;;;;11.34;100.00;102536.66;5057299;28;46587;-77
2024/02/05 09:09:04;;;;;;;;;0.00;0.00;;;;;11.32;100.00;102530.59;5057394;28;45295;-77
2024/02/05 09:11:31;;;;;;;;;0.00;0.00;;;;;11.36;100.00;102542.72;5057476;28;45376;-77
2024/02/05 09:13:57;;;;;;;;;0.00;0.00;;;;;11.33;100.00;102529.72;5057389;28;45378;-77
2024/02/05 09:16:22;;;;;;;;;0.00;0.00;;;;;11.39;100.00;102544.47;5057193;28;45719;-77
2024/02/05 09:18:48;;;;;;;;;0.00;0.00;;;;;11.33;100.00;102539.25;5055943;28;73155;-76
2024/02/05 09:21:13;;;;;;;;;0.00;0.00;;;;;11.30;100.00;102539.28;5056216;28;69854;-77
2024/02/05 09:23:38;;;;;;;;;0.00;0.00;;;;;11.24;100.00;102541.03;5054675;28;70130;-77
2024/02/05 09:26:04;;;;;;;;;0.00;0.00;;;;;11.26;100.00;102545.41;5057004;28;45514;-77
2024/02/05 09:28:29;;;;;;;;;0.00;0.00;;;;;11.21;100.00;102545.41;5054902;28;72178;-76
2024/02/05 09:30:54;;;;;;;;;0.00;0.00;;;;;11.21;100.00;102546.25;5056932;28;45948;-77
2024/02/05 09:33:20;;;;;;;;;0.00;0.00;;;;;11.20;100.00;102543.69;5055599;28;70219;-77
2024/02/05 09:35:46;;;;;;;;;0.00;0.00;;;;;11.20;100.00;102557.56;5056821;28;45386;-77
2024/02/05 09:38:11;;;;;;;;;0.00;0.00;;;;;11.20;100.00;102546.28;5055709;28;70009;-77
2024/02/05 09:40:36;;;;;;;;;0.00;0.00;;;;;11.25;100.00;102549.72;5056047;28;63850;-77
2024/02/05 09:43:02;;;;;;;;;0.00;0.00;;;;;11.25;100.00;102541.91;5054558;28;71148;-77
2024/02/05 09:45:29;;;;;;;;;1.00;0.00;;;;;11.30;100.00;102547.13;5056485;28;49413;-77
2024/02/05 09:47:56;;;;;;;;;0.00;0.00;;;;;11.41;100.00;102547.94;5054800;28;53248;-76
2024/02/05 09:50:25;;;;;;;;;0.00;0.00;;;;;11.35;100.00;102558.41;5055624;28;45392;-77
2024/02/05 09:52:50;;;;;;;;;0.00;0.00;;;;;11.32;100.00;102554.06;5038417;28;45472;-77
2024/02/05 09:55:16;;;;;;;;;0.00;0.00;;;;;11.31;100.00;102551.44;5055713;28;76941;-78
2024/02/05 09:57:42;;;;;;;;;4.00;4.00;;;;;11.26;100.00;102550.63;5054350;28;73278;-77
2024/02/05 10:00:10;;;;;;;;;0.00;0.00;;;;;11.21;100.00;102551.47;5054578;28;69404;-76
2024/02/05 10:02:36;;;;;;;;;1.00;0.25;;;;;11.24;100.00;102548.00;5054898;28;45394;-77
2024/02/05 10:05:02;;;;;;;;;0.00;0.00;;;;;11.23;100.00;102546.25;5038480;28;48294;-77
2024/02/05 10:07:29;;;;;;;;;0.00;0.00;;;;;11.24;100.00;102543.66;5055301;28;45434;-77
2024/02/05 10:09:55;;;;;;;;;0.00;0.00;;;;;11.27;100.00;102534.94;5055443;28;45344;-77
2024/02/05 10:12:20;;;;;;;;;0.00;0.00;;;;;11.28;100.00;102536.69;5055317;28;45511;-77
2024/02/05 10:14:47;;;;;;;;;0.00;0.00;;;;;11.32;100.00;102538.41;5056344;28;47402;-77
2024/02/05 10:17:12;;;;;;;;;0.00;0.00;;;;;11.29;100.00;102534.94;5056058;28;45353;-76
2024/02/05 10:19:38;;;;;;;;;0.00;0.00;;;;;11.31;100.00;102531.47;5056570;28;45382;-77
2024/02/05 10:22:06;;;;;;;;;0.00;0.00;;;;;11.34;100.00;102533.19;5055023;28;45399;-77
2024/02/05 10:24:34;;;;;;;;;0.00;0.00;;;;;11.36;100.00;102532.31;5055023;28;47650;-76
2024/02/05 10:26:59;;;;;;;;;0.00;0.00;;;;;11.35;100.00;102534.94;5054962;28;45418;-77
2024/02/05 10:29:24;;;;;;;;;7.00;0.00;;;;;11.34;100.00;102527.97;5053943;28;69465;-77
2024/02/05 10:31:52;;;;;;;;;0.00;0.00;;;;;11.30;100.00;102529.72;5054834;28;45428;-77
2024/02/05 10:34:21;;;;;;;;;0.00;0.00;;;;;11.35;100.00;102532.34;5056022;28;46626;-77
2024/02/05 10:36:46;;;;;;;;;0.00;0.00;;;;;11.36;100.00;102534.91;5054891;28;45449;-77
2024/02/05 10:39:25;;;;;;;;;0.00;0.00;;;;;11.34;100.00;102523.63;5055028;28;45336;-77
2024/02/05 10:41:52;;;;;;;;;0.00;0.00;;;;;11.43;100.00;102531.41;5056204;28;45453;-77
2024/02/05 10:44:18;;;;;;;;;0.00;0.00;;;;;11.43;100.00;102520.97;5055630;28;47188;-77
2024/02/05 10:46:45;;;;;;;;;0.00;0.00;;;;;11.45;100.00;102525.34;5054549;28;45786;-77
2024/02/05 10:49:10;;;;;;;;;0.00;0.00;;;;;11.51;100.00;102522.69;5053763;28;45385;-77
2024/02/05 10:51:36;;;;;;;;;0.00;0.00;;;;;11.45;100.00;102520.13;5049860;28;45369;-77
2024/02/05 10:54:02;;;;;;;;;0.00;0.00;;;;;11.46;100.00;102522.72;5035627;28;46322;-77
2024/02/05 10:56:30;;;;;;;;;0.00;0.00;;;;;11.38;100.00;102519.28;5035794;28;45387;-77
2024/02/05 10:58:58;;;;;;;;;0.00;0.00;;;;;11.40;100.00;102520.13;5035577;28;45325;-78
2024/02/05 11:01:24;;;;;;;;;0.00;0.00;;;;;11.38;100.00;102519.28;5035855;28;45281;-77
2024/02/05 11:03:51;;;;;;;;;0.00;0.00;;;;;11.42;100.00;102510.56;5034329;28;46428;-76
2024/02/05 11:06:17;;;;;;;;;0.00;0.00;;;;;11.47;100.00;102510.56;5034578;28;45485;-77
2024/02/05 11:08:42;;;;;;;;;0.00;0.00;;;;;11.52;100.00;102506.19;5033501;28;69669;-77
2024/02/05 11:11:12;;;;;;;;;0.00;0.00;;;;;11.55;100.00;102508.75;5034483;28;45376;-77